sensor_id;sensor_type;location;lat;lon;timestamp;P1;durP1;ratioP1;P2;durP2;ratioP2
13255;SDS011;37913;48.370;10.930;2023-05-16T00:00:46;92.53;;;41.45;;
13255;SDS011;37913;48.370;10.930;2023-05-16T00:03:17;93.93;;;40.88;;
13255;SDS011;37913;48.370;10.930;2023-05-16T00:05:44;96.10;;;41.33;;
13255;SDS011;37913;48.370;10.930;2023-05-16T00:08:12;100.88;;;42.83;;
13255;SDS011;37913;48.370;10.930;2023-05-16T00:10:39;96.10;;;41.95;;
13255;SDS011;37913;48.370;10.930;2023-05-16T00:13:07;93.72;;;42.00;;
13255;SDS011;37913;48.370;10.930;2023-05-16T00:15:34;104.50;;;43.63;;
13255;SDS011;37913;48.370;10.930;2023-05-16T00:18:02;81.50;;;39.13;;
13255;SDS011;37913;48.370;10.930;2023-05-16T00:20:29;98.53;;;41.92;;
13255;SDS011;37913;48.370;10.930;2023-05-16T00:22:56;100.25;;;42.65;;
13255;SDS011;37913;48.370;10.930;2023-05-16T00:25:25;97.90;;;41.72;;
13255;SDS011;37913;48.370;10.930;2023-05-16T00:27:52;99.25;;;41.85;;
13255;SDS011;37913;48.370;10.930;2023-05-16T00:30:20;112.97;;;45.15;;
13255;SDS011;37913;48.370;10.930;2023-05-16T00:32:47;108.95;;;44.35;;
13255;SDS011;37913;48.370;10.930;2023-05-16T00:35:14;106.05;;;43.50;;
13255;SDS011;37913;48.370;10.930;2023-05-16T00:37:41;105.28;;;43.53;;
13255;SDS011;37913;48.370;10.930;2023-05-16T00:40:09;107.05;;;44.13;;
13255;SDS011;37913;48.370;10.930;2023-05-16T00:42:36;111.07;;;45.28;;
13255;SDS011;37913;48.370;10.930;2023-05-16T00:45:04;104.03;;;44.08;;
13255;SDS011;37913;48.370;10.930;2023-05-16T00:47:33;111.35;;;45.60;;
13255;SDS011;37913;48.370;10.930;2023-05-16T00:50:00;95.15;;;42.78;;
13255;SDS011;37913;48.370;10.930;2023-05-16T00:52:28;102.13;;;44.30;;
13255;SDS011;37913;48.370;10.930;2023-05-16T00:54:57;113.85;;;44.97;;
13255;SDS011;37913;48.370;10.930;2023-05-16T00:57:25;100.93;;;43.00;;
13255;SDS011;37913;48.370;10.930;2023-05-16T00:59:52;102.43;;;43.38;;
13255;SDS011;37913;48.370;10.930;2023-05-16T01:02:20;105.15;;;44.38;;
13255;SDS011;37913;48.370;10.930;2023-05-16T01:04:48;123.22;;;47.53;;
13255;SDS011;37913;48.370;10.930;2023-05-16T01:07:16;90.22;;;41.33;;
13255;SDS011;37913;48.370;10.930;2023-05-16T01:09:43;98.97;;;42.78;;
13255;SDS011;37913;48.370;10.930;2023-05-16T01:12:10;101.45;;;42.88;;
13255;SDS011;37913;48.370;10.930;2023-05-16T01:14:45;93.95;;;41.90;;
13255;SDS011;37913;48.370;10.930;2023-05-16T01:17:22;107.25;;;44.40;;
13255;SDS011;37913;48.370;10.930;2023-05-16T01:20:01;102.95;;;43.28;;
13255;SDS011;37913;48.370;10.930;2023-05-16T01:22:40;95.78;;;41.90;;
13255;SDS011;37913;48.370;10.930;2023-05-16T01:25:20;94.63;;;41.50;;
13255;SDS011;37913;48.370;10.930;2023-05-16T01:27:55;103.13;;;43.13;;
13255;SDS011;37913;48.370;10.930;2023-05-16T01:30:24;102.22;;;43.55;;
13255;SDS011;37913;48.370;10.930;2023-05-16T01:32:51;103.35;;;43.42;;
13255;SDS011;37913;48.370;10.930;2023-05-16T01:35:17;107.25;;;44.90;;
13255;SDS011;37913;48.370;10.930;2023-05-16T01:37:47;98.35;;;42.03;;
13255;SDS011;37913;48.370;10.930;2023-05-16T01:40:25;92.63;;;41.28;;
13255;SDS011;37913;48.370;10.930;2023-05-16T01:43:00;95.13;;;41.40;;
13255;SDS011;37913;48.370;10.930;2023-05-16T01:45:30;104.80;;;43.38;;
13255;SDS011;37913;48.370;10.930;2023-05-16T01:48:03;103.45;;;43.75;;
13255;SDS011;37913;48.370;10.930;2023-05-16T01:50:34;100.90;;;42.85;;
13255;SDS011;37913;48.370;10.930;2023-05-16T01:53:09;105.55;;;44.72;;
13255;SDS011;37913;48.370;10.930;2023-05-16T01:55:41;104.05;;;43.45;;
13255;SDS011;37913;48.370;10.930;2023-05-16T01:58:12;93.85;;;41.53;;
13255;SDS011;37913;48.370;10.930;2023-05-16T02:00:41;99.38;;;42.58;;
13255;SDS011;37913;48.370;10.930;2023-05-16T02:03:08;100.72;;;43.33;;
13255;SDS011;37913;48.370;10.930;2023-05-16T02:05:35;93.25;;;41.63;;
13255;SDS011;37913;48.370;10.930;2023-05-16T02:08:03;107.88;;;44.17;;
13255;SDS011;37913;48.370;10.930;2023-05-16T02:10:30;89.80;;;41.25;;
13255;SDS011;37913;48.370;10.930;2023-05-16T02:12:57;101.68;;;42.03;;
13255;SDS011;37913;48.370;10.930;2023-05-16T02:15:25;102.50;;;44.10;;
13255;SDS011;37913;48.370;10.930;2023-05-16T02:17:52;99.30;;;42.20;;
13255;SDS011;37913;48.370;10.930;2023-05-16T02:20:19;103.55;;;43.10;;
13255;SDS011;37913;48.370;10.930;2023-05-16T02:22:46;99.38;;;42.50;;
13255;SDS011;37913;48.370;10.930;2023-05-16T02:25:14;104.55;;;43.42;;
13255;SDS011;37913;48.370;10.930;2023-05-16T02:27:41;110.55;;;45.08;;
13255;SDS011;37913;48.370;10.930;2023-05-16T02:30:08;107.38;;;44.85;;
13255;SDS011;37913;48.370;10.930;2023-05-16T02:32:37;105.90;;;45.25;;
13255;SDS011;37913;48.370;10.930;2023-05-16T02:35:05;108.00;;;44.47;;
13255;SDS011;37913;48.370;10.930;2023-05-16T02:37:32;115.32;;;44.47;;
13255;SDS011;37913;48.370;10.930;2023-05-16T02:39:59;117.82;;;46.35;;
13255;SDS011;37913;48.370;10.930;2023-05-16T02:42:27;119.82;;;46.97;;
13255;SDS011;37913;48.370;10.930;2023-05-16T02:44:56;119.35;;;45.53;;
13255;SDS011;37913;48.370;10.930;2023-05-16T02:47:23;108.20;;;43.05;;
13255;SDS011;37913;48.370;10.930;2023-05-16T02:49:51;119.53;;;46.55;;
13255;SDS011;37913;48.370;10.930;2023-05-16T02:52:18;97.38;;;42.28;;
13255;SDS011;37913;48.370;10.930;2023-05-16T02:54:45;120.00;;;47.22;;
13255;SDS011;37913;48.370;10.930;2023-05-16T02:57:12;114.43;;;46.72;;
13255;SDS011;37913;48.370;10.930;2023-05-16T02:59:39;114.95;;;46.70;;
13255;SDS011;37913;48.370;10.930;2023-05-16T03:02:06;109.13;;;46.00;;
13255;SDS011;37913;48.370;10.930;2023-05-16T03:04:33;104.85;;;44.15;;
13255;SDS011;37913;48.370;10.930;2023-05-16T03:07:02;111.35;;;45.88;;
13255;SDS011;37913;48.370;10.930;2023-05-16T03:09:29;103.78;;;43.88;;
13255;SDS011;37913;48.370;10.930;2023-05-16T03:11:57;102.00;;;43.08;;
13255;SDS011;37913;48.370;10.930;2023-05-16T03:14:24;114.53;;;45.92;;
13255;SDS011;37913;48.370;10.930;2023-05-16T03:16:51;110.30;;;45.80;;
13255;SDS011;37913;48.370;10.930;2023-05-16T03:19:18;103.03;;;45.03;;
13255;SDS011;37913;48.370;10.930;2023-05-16T03:21:45;110.05;;;43.80;;
13255;SDS011;37913;48.370;10.930;2023-05-16T03:24:13;102.22;;;43.15;;
13255;SDS011;37913;48.370;10.930;2023-05-16T03:26:40;103.93;;;44.05;;
13255;SDS011;37913;48.370;10.930;2023-05-16T03:29:07;106.70;;;45.13;;
13255;SDS011;37913;48.370;10.930;2023-05-16T03:31:34;102.13;;;44.97;;
13255;SDS011;37913;48.370;10.930;2023-05-16T03:34:01;120.57;;;46.30;;
13255;SDS011;37913;48.370;10.930;2023-05-16T03:36:28;122.15;;;45.22;;
13255;SDS011;37913;48.370;10.930;2023-05-16T03:38:55;118.82;;;47.72;;
13255;SDS011;37913;48.370;10.930;2023-05-16T03:41:23;110.95;;;45.45;;
13255;SDS011;37913;48.370;10.930;2023-05-16T03:43:51;125.22;;;47.90;;
13255;SDS011;37913;48.370;10.930;2023-05-16T03:46:18;110.05;;;45.67;;
13255;SDS011;37913;48.370;10.930;2023-05-16T03:48:44;119.97;;;47.00;;
13255;SDS011;37913;48.370;10.930;2023-05-16T03:51:11;115.43;;;45.97;;
13255;SDS011;37913;48.370;10.930;2023-05-16T03:53:38;119.30;;;47.10;;
13255;SDS011;37913;48.370;10.930;2023-05-16T03:56:05;116.53;;;46.90;;
13255;SDS011;37913;48.370;10.930;2023-05-16T03:58:34;110.03;;;45.78;;
13255;SDS011;37913;48.370;10.930;2023-05-16T04:01:01;113.03;;;45.88;;
13255;SDS011;37913;48.370;10.930;2023-05-16T04:03:28;118.38;;;46.47;;
13255;SDS011;37913;48.370;10.930;2023-05-16T04:05:55;114.82;;;46.50;;
13255;SDS011;37913;48.370;10.930;2023-05-16T04:08:22;125.70;;;48.00;;
13255;SDS011;37913;48.370;10.930;2023-05-16T04:10:49;134.50;;;51.65;;
13255;SDS011;37913;48.370;10.930;2023-05-16T04:13:17;121.40;;;48.88;;
13255;SDS011;37913;48.370;10.930;2023-05-16T04:15:46;117.50;;;48.15;;
13255;SDS011;37913;48.370;10.930;2023-05-16T04:18:13;124.40;;;48.50;;
13255;SDS011;37913;48.370;10.930;2023-05-16T04:20:40;128.18;;;48.35;;
13255;SDS011;37913;48.370;10.930;2023-05-16T04:23:08;120.68;;;47.03;;
13255;SDS011;37913;48.370;10.930;2023-05-16T04:25:36;114.00;;;46.92;;
13255;SDS011;37913;48.370;10.930;2023-05-16T04:28:03;117.15;;;47.00;;
13255;SDS011;37913;48.370;10.930;2023-05-16T04:30:31;119.35;;;47.63;;
13255;SDS011;37913;48.370;10.930;2023-05-16T04:32:59;116.85;;;47.28;;
13255;SDS011;37913;48.370;10.930;2023-05-16T04:35:26;120.00;;;48.28;;
13255;SDS011;37913;48.370;10.930;2023-05-16T04:37:53;121.25;;;47.47;;
13255;SDS011;37913;48.370;10.930;2023-05-16T04:40:20;117.22;;;48.22;;
13255;SDS011;37913;48.370;10.930;2023-05-16T04:42:48;117.78;;;48.40;;
13255;SDS011;37913;48.370;10.930;2023-05-16T04:45:15;121.00;;;48.60;;
13255;SDS011;37913;48.370;10.930;2023-05-16T04:47:42;121.70;;;49.85;;
13255;SDS011;37913;48.370;10.930;2023-05-16T04:50:10;132.20;;;49.90;;
13255;SDS011;37913;48.370;10.930;2023-05-16T04:52:39;121.43;;;48.40;;
13255;SDS011;37913;48.370;10.930;2023-05-16T04:55:06;133.13;;;52.97;;
13255;SDS011;37913;48.370;10.930;2023-05-16T04:57:34;131.48;;;51.40;;
13255;SDS011;37913;48.370;10.930;2023-05-16T05:00:00;122.22;;;49.90;;
13255;SDS011;37913;48.370;10.930;2023-05-16T05:02:32;125.30;;;50.08;;
13255;SDS011;37913;48.370;10.930;2023-05-16T05:04:58;146.40;;;55.97;;
13255;SDS011;37913;48.370;10.930;2023-05-16T05:07:27;127.43;;;51.13;;
13255;SDS011;37913;48.370;10.930;2023-05-16T05:09:54;120.95;;;51.13;;
13255;SDS011;37913;48.370;10.930;2023-05-16T05:12:21;131.23;;;51.67;;
13255;SDS011;37913;48.370;10.930;2023-05-16T05:14:48;148.15;;;56.17;;
13255;SDS011;37913;48.370;10.930;2023-05-16T05:17:15;134.63;;;55.00;;
13255;SDS011;37913;48.370;10.930;2023-05-16T05:19:42;136.18;;;54.13;;
13255;SDS011;37913;48.370;10.930;2023-05-16T05:22:09;131.45;;;54.05;;
13255;SDS011;37913;48.370;10.930;2023-05-16T05:24:37;143.00;;;56.58;;
13255;SDS011;37913;48.370;10.930;2023-05-16T05:27:04;122.45;;;52.50;;
13255;SDS011;37913;48.370;10.930;2023-05-16T05:29:31;128.95;;;52.80;;
13255;SDS011;37913;48.370;10.930;2023-05-16T05:31:58;131.75;;;55.78;;
13255;SDS011;37913;48.370;10.930;2023-05-16T05:34:25;133.23;;;55.42;;
13255;SDS011;37913;48.370;10.930;2023-05-16T05:36:52;121.60;;;53.40;;
13255;SDS011;37913;48.370;10.930;2023-05-16T05:39:21;125.65;;;53.78;;
13255;SDS011;37913;48.370;10.930;2023-05-16T05:41:50;124.95;;;53.63;;
13255;SDS011;37913;48.370;10.930;2023-05-16T05:44:17;117.53;;;53.15;;
13255;SDS011;37913;48.370;10.930;2023-05-16T05:46:45;125.82;;;56.00;;
13255;SDS011;37913;48.370;10.930;2023-05-16T05:49:12;118.15;;;53.47;;
13255;SDS011;37913;48.370;10.930;2023-05-16T05:51:39;128.98;;;55.33;;
13255;SDS011;37913;48.370;10.930;2023-05-16T05:54:06;119.75;;;54.30;;
13255;SDS011;37913;48.370;10.930;2023-05-16T05:56:33;114.97;;;52.75;;
13255;SDS011;37913;48.370;10.930;2023-05-16T05:59:01;114.40;;;52.42;;
13255;SDS011;37913;48.370;10.930;2023-05-16T06:01:28;110.00;;;52.42;;
13255;SDS011;37913;48.370;10.930;2023-05-16T06:03:55;112.70;;;51.42;;
13255;SDS011;37913;48.370;10.930;2023-05-16T06:06:22;101.35;;;49.70;;
13255;SDS011;37913;48.370;10.930;2023-05-16T06:08:49;110.35;;;51.35;;
13255;SDS011;37913;48.370;10.930;2023-05-16T06:11:16;98.20;;;47.88;;
13255;SDS011;37913;48.370;10.930;2023-05-16T06:13:43;101.63;;;47.85;;
13255;SDS011;37913;48.370;10.930;2023-05-16T06:16:11;99.35;;;46.08;;
13255;SDS011;37913;48.370;10.930;2023-05-16T06:18:38;95.75;;;45.20;;
13255;SDS011;37913;48.370;10.930;2023-05-16T06:21:06;97.30;;;46.08;;
13255;SDS011;37913;48.370;10.930;2023-05-16T06:23:33;93.60;;;44.63;;
13255;SDS011;37913;48.370;10.930;2023-05-16T06:26:00;94.72;;;44.63;;
13255;SDS011;37913;48.370;10.930;2023-05-16T06:28:27;97.90;;;44.60;;
13255;SDS011;37913;48.370;10.930;2023-05-16T06:30:54;102.65;;;45.67;;
13255;SDS011;37913;48.370;10.930;2023-05-16T06:33:23;100.68;;;45.00;;
13255;SDS011;37913;48.370;10.930;2023-05-16T06:35:50;100.63;;;44.63;;
13255;SDS011;37913;48.370;10.930;2023-05-16T06:38:17;102.65;;;45.88;;
13255;SDS011;37913;48.370;10.930;2023-05-16T06:40:44;114.00;;;48.45;;
13255;SDS011;37913;48.370;10.930;2023-05-16T06:43:12;101.13;;;45.97;;
13255;SDS011;37913;48.370;10.930;2023-05-16T06:45:39;121.15;;;51.35;;
13255;SDS011;37913;48.370;10.930;2023-05-16T06:48:06;95.75;;;45.13;;
13255;SDS011;37913;48.370;10.930;2023-05-16T06:50:34;95.55;;;44.90;;
13255;SDS011;37913;48.370;10.930;2023-05-16T06:53:01;87.20;;;43.58;;
13255;SDS011;37913;48.370;10.930;2023-05-16T06:55:29;104.68;;;46.85;;
13255;SDS011;37913;48.370;10.930;2023-05-16T06:57:56;90.07;;;44.50;;
13255;SDS011;37913;48.370;10.930;2023-05-16T07:00:23;90.60;;;44.40;;
13255;SDS011;37913;48.370;10.930;2023-05-16T07:02:50;105.90;;;47.33;;
13255;SDS011;37913;48.370;10.930;2023-05-16T07:05:17;94.07;;;45.47;;
13255;SDS011;37913;48.370;10.930;2023-05-16T07:07:45;94.28;;;44.45;;
13255;SDS011;37913;48.370;10.930;2023-05-16T07:10:13;98.03;;;45.72;;
13255;SDS011;37913;48.370;10.930;2023-05-16T07:12:41;103.30;;;46.97;;
13255;SDS011;37913;48.370;10.930;2023-05-16T07:15:09;100.90;;;47.75;;
13255;SDS011;37913;48.370;10.930;2023-05-16T07:17:39;107.13;;;49.25;;
13255;SDS011;37913;48.370;10.930;2023-05-16T07:20:06;110.88;;;49.35;;
13255;SDS011;37913;48.370;10.930;2023-05-16T07:22:37;107.32;;;48.35;;
13255;SDS011;37913;48.370;10.930;2023-05-16T07:25:06;103.35;;;47.42;;
13255;SDS011;37913;48.370;10.930;2023-05-16T07:27:37;103.18;;;48.15;;
13255;SDS011;37913;48.370;10.930;2023-05-16T07:30:05;96.00;;;47.13;;
13255;SDS011;37913;48.370;10.930;2023-05-16T07:32:33;102.43;;;48.08;;
13255;SDS011;37913;48.370;10.930;2023-05-16T07:35:00;118.93;;;51.42;;
13255;SDS011;37913;48.370;10.930;2023-05-16T07:37:27;107.05;;;48.78;;
13255;SDS011;37913;48.370;10.930;2023-05-16T07:39:54;102.47;;;48.42;;
13255;SDS011;37913;48.370;10.930;2023-05-16T07:42:23;125.80;;;53.30;;
13255;SDS011;37913;48.370;10.930;2023-05-16T07:44:50;117.47;;;50.78;;
13255;SDS011;37913;48.370;10.930;2023-05-16T07:47:17;106.68;;;48.92;;
13255;SDS011;37913;48.370;10.930;2023-05-16T07:49:44;102.55;;;48.38;;
13255;SDS011;37913;48.370;10.930;2023-05-16T07:52:11;103.22;;;48.65;;
13255;SDS011;37913;48.370;10.930;2023-05-16T07:54:38;107.95;;;50.10;;
13255;SDS011;37913;48.370;10.930;2023-05-16T07:57:05;107.35;;;49.80;;
13255;SDS011;37913;48.370;10.930;2023-05-16T07:59:33;102.35;;;49.22;;
13255;SDS011;37913;48.370;10.930;2023-05-16T08:02:00;105.50;;;50.13;;
13255;SDS011;37913;48.370;10.930;2023-05-16T08:04:27;99.65;;;48.28;;
13255;SDS011;37913;48.370;10.930;2023-05-16T08:06:54;110.97;;;50.25;;
13255;SDS011;37913;48.370;10.930;2023-05-16T08:09:21;97.88;;;47.95;;
13255;SDS011;37913;48.370;10.930;2023-05-16T08:11:48;100.90;;;48.97;;
13255;SDS011;37913;48.370;10.930;2023-05-16T08:14:15;91.68;;;46.28;;
13255;SDS011;37913;48.370;10.930;2023-05-16T08:16:44;95.20;;;47.28;;
13255;SDS011;37913;48.370;10.930;2023-05-16T08:19:11;88.53;;;46.45;;
13255;SDS011;37913;48.370;10.930;2023-05-16T08:21:38;102.13;;;48.75;;
13255;SDS011;37913;48.370;10.930;2023-05-16T08:24:06;100.45;;;49.58;;
13255;SDS011;37913;48.370;10.930;2023-05-16T08:26:35;96.57;;;48.10;;
13255;SDS011;37913;48.370;10.930;2023-05-16T08:29:02;100.07;;;49.42;;
13255;SDS011;37913;48.370;10.930;2023-05-16T08:31:30;109.53;;;52.53;;
13255;SDS011;37913;48.370;10.930;2023-05-16T08:33:58;91.18;;;47.72;;
13255;SDS011;37913;48.370;10.930;2023-05-16T08:36:25;97.95;;;49.78;;
13255;SDS011;37913;48.370;10.930;2023-05-16T08:38:53;98.05;;;49.25;;
13255;SDS011;37913;48.370;10.930;2023-05-16T08:41:20;100.28;;;50.05;;
13255;SDS011;37913;48.370;10.930;2023-05-16T08:43:47;99.80;;;49.92;;
13255;SDS011;37913;48.370;10.930;2023-05-16T08:46:15;93.85;;;48.95;;
13255;SDS011;37913;48.370;10.930;2023-05-16T08:48:48;97.10;;;50.00;;
13255;SDS011;37913;48.370;10.930;2023-05-16T08:51:19;104.00;;;51.13;;
13255;SDS011;37913;48.370;10.930;2023-05-16T08:53:49;109.22;;;52.63;;
13255;SDS011;37913;48.370;10.930;2023-05-16T08:56:19;110.43;;;53.80;;
13255;SDS011;37913;48.370;10.930;2023-05-16T08:58:48;108.22;;;53.22;;
13255;SDS011;37913;48.370;10.930;2023-05-16T09:01:16;102.75;;;52.13;;
13255;SDS011;37913;48.370;10.930;2023-05-16T09:03:44;103.38;;;52.58;;
13255;SDS011;37913;48.370;10.930;2023-05-16T09:06:12;97.68;;;51.00;;
13255;SDS011;37913;48.370;10.930;2023-05-16T09:08:41;87.88;;;49.10;;
13255;SDS011;37913;48.370;10.930;2023-05-16T09:11:08;113.28;;;54.15;;
13255;SDS011;37913;48.370;10.930;2023-05-16T09:13:36;103.80;;;51.33;;
13255;SDS011;37913;48.370;10.930;2023-05-16T09:16:07;108.93;;;52.25;;
13255;SDS011;37913;48.370;10.930;2023-05-16T09:18:35;101.35;;;50.25;;
13255;SDS011;37913;48.370;10.930;2023-05-16T09:21:02;102.55;;;50.70;;
13255;SDS011;37913;48.370;10.930;2023-05-16T09:23:29;97.72;;;49.78;;
13255;SDS011;37913;48.370;10.930;2023-05-16T09:25:58;98.75;;;49.05;;
13255;SDS011;37913;48.370;10.930;2023-05-16T09:28:25;101.10;;;49.45;;
13255;SDS011;37913;48.370;10.930;2023-05-16T09:30:52;102.85;;;49.83;;
13255;SDS011;37913;48.370;10.930;2023-05-16T09:33:21;105.47;;;49.92;;
13255;SDS011;37913;48.370;10.930;2023-05-16T09:35:53;107.10;;;50.40;;
13255;SDS011;37913;48.370;10.930;2023-05-16T09:38:21;101.93;;;49.58;;
13255;SDS011;37913;48.370;10.930;2023-05-16T09:40:49;105.55;;;50.38;;
13255;SDS011;37913;48.370;10.930;2023-05-16T09:43:18;101.65;;;49.53;;
13255;SDS011;37913;48.370;10.930;2023-05-16T09:45:50;91.43;;;48.05;;
13255;SDS011;37913;48.370;10.930;2023-05-16T09:48:17;99.78;;;49.72;;
13255;SDS011;37913;48.370;10.930;2023-05-16T09:50:46;95.93;;;48.92;;
13255;SDS011;37913;48.370;10.930;2023-05-16T09:53:16;95.30;;;48.95;;
13255;SDS011;37913;48.370;10.930;2023-05-16T09:55:43;101.70;;;50.60;;
13255;SDS011;37913;48.370;10.930;2023-05-16T09:58:10;97.47;;;50.50;;
13255;SDS011;37913;48.370;10.930;2023-05-16T10:00:38;89.32;;;48.28;;
13255;SDS011;37913;48.370;10.930;2023-05-16T10:03:06;99.35;;;50.45;;
13255;SDS011;37913;48.370;10.930;2023-05-16T10:05:33;91.28;;;47.88;;
13255;SDS011;37913;48.370;10.930;2023-05-16T10:08:01;99.03;;;50.63;;
13255;SDS011;37913;48.370;10.930;2023-05-16T10:10:29;100.40;;;50.13;;
13255;SDS011;37913;48.370;10.930;2023-05-16T10:13:00;98.18;;;50.50;;
13255;SDS011;37913;48.370;10.930;2023-05-16T10:15:30;102.00;;;50.80;;
13255;SDS011;37913;48.370;10.930;2023-05-16T10:17:59;85.10;;;48.33;;
13255;SDS011;37913;48.370;10.930;2023-05-16T10:20:27;102.97;;;50.33;;
13255;SDS011;37913;48.370;10.930;2023-05-16T10:22:55;106.13;;;51.08;;
13255;SDS011;37913;48.370;10.930;2023-05-16T10:25:25;100.50;;;50.00;;
13255;SDS011;37913;48.370;10.930;2023-05-16T10:27:56;119.65;;;55.00;;
13255;SDS011;37913;48.370;10.930;2023-05-16T10:30:24;91.38;;;47.88;;
13255;SDS011;37913;48.370;10.930;2023-05-16T10:32:51;99.20;;;50.33;;
13255;SDS011;37913;48.370;10.930;2023-05-16T10:35:20;96.38;;;49.83;;
13255;SDS011;37913;48.370;10.930;2023-05-16T10:37:47;102.22;;;50.55;;
13255;SDS011;37913;48.370;10.930;2023-05-16T10:40:14;96.82;;;49.13;;
13255;SDS011;37913;48.370;10.930;2023-05-16T10:42:43;102.88;;;49.75;;
13255;SDS011;37913;48.370;10.930;2023-05-16T10:45:20;92.57;;;48.03;;
13255;SDS011;37913;48.370;10.930;2023-05-16T10:47:51;103.93;;;49.25;;
13255;SDS011;37913;48.370;10.930;2023-05-16T10:50:35;110.05;;;51.13;;
13255;SDS011;37913;48.370;10.930;2023-05-16T10:58:40;100.93;;;49.00;;
13255;SDS011;37913;48.370;10.930;2023-05-16T11:01:14;102.32;;;50.03;;
13255;SDS011;37913;48.370;10.930;2023-05-16T11:06:29;104.15;;;49.72;;
13255;SDS011;37913;48.370;10.930;2023-05-16T11:09:03;102.53;;;48.92;;
13255;SDS011;37913;48.370;10.930;2023-05-16T11:11:40;105.55;;;49.80;;
13255;SDS011;37913;48.370;10.930;2023-05-16T11:14:16;103.88;;;49.70;;
13255;SDS011;37913;48.370;10.930;2023-05-16T11:16:47;105.18;;;49.22;;
13255;SDS011;37913;48.370;10.930;2023-05-16T11:19:27;115.15;;;51.70;;
13255;SDS011;37913;48.370;10.930;2023-05-16T11:22:11;107.03;;;50.60;;
13255;SDS011;37913;48.370;10.930;2023-05-16T11:24:50;113.68;;;52.20;;
13255;SDS011;37913;48.370;10.930;2023-05-16T11:27:19;104.72;;;51.35;;
13255;SDS011;37913;48.370;10.930;2023-05-16T11:29:52;116.15;;;53.97;;
13255;SDS011;37913;48.370;10.930;2023-05-16T11:32:20;106.05;;;51.58;;
13255;SDS011;37913;48.370;10.930;2023-05-16T11:34:48;121.28;;;53.40;;
13255;SDS011;37913;48.370;10.930;2023-05-16T11:37:17;106.47;;;52.08;;
13255;SDS011;37913;48.370;10.930;2023-05-16T11:39:45;117.20;;;54.92;;
13255;SDS011;37913;48.370;10.930;2023-05-16T11:42:12;118.43;;;55.53;;
13255;SDS011;37913;48.370;10.930;2023-05-16T11:44:39;114.05;;;53.58;;
13255;SDS011;37913;48.370;10.930;2023-05-16T11:47:07;117.15;;;55.55;;
13255;SDS011;37913;48.370;10.930;2023-05-16T11:49:34;107.47;;;52.83;;
13255;SDS011;37913;48.370;10.930;2023-05-16T11:52:01;117.00;;;54.60;;
13255;SDS011;37913;48.370;10.930;2023-05-16T11:54:30;121.30;;;54.45;;
13255;SDS011;37913;48.370;10.930;2023-05-16T11:56:58;117.80;;;53.13;;
13255;SDS011;37913;48.370;10.930;2023-05-16T11:59:26;109.43;;;51.97;;
13255;SDS011;37913;48.370;10.930;2023-05-16T12:01:53;129.93;;;56.08;;
13255;SDS011;37913;48.370;10.930;2023-05-16T12:04:20;119.47;;;53.80;;
13255;SDS011;37913;48.370;10.930;2023-05-16T12:06:56;113.10;;;50.97;;
13255;SDS011;37913;48.370;10.930;2023-05-16T12:09:26;118.82;;;53.60;;
13255;SDS011;37913;48.370;10.930;2023-05-16T12:11:54;135.48;;;57.10;;
13255;SDS011;37913;48.370;10.930;2023-05-16T12:14:22;109.70;;;51.95;;
13255;SDS011;37913;48.370;10.930;2023-05-16T12:16:50;122.80;;;54.65;;
13255;SDS011;37913;48.370;10.930;2023-05-16T12:19:17;116.40;;;54.97;;
13255;SDS011;37913;48.370;10.930;2023-05-16T12:21:45;118.70;;;54.63;;
13255;SDS011;37913;48.370;10.930;2023-05-16T12:24:12;116.97;;;45.35;;
13255;SDS011;37913;48.370;10.930;2023-05-16T12:26:40;111.35;;;47.72;;
13255;SDS011;37913;48.370;10.930;2023-05-16T12:29:08;134.52;;;46.95;;
13255;SDS011;37913;48.370;10.930;2023-05-16T12:31:37;94.63;;;44.17;;
13255;SDS011;37913;48.370;10.930;2023-05-16T12:34:13;108.45;;;47.08;;
13255;SDS011;37913;48.370;10.930;2023-05-16T12:36:41;115.68;;;50.08;;
13255;SDS011;37913;48.370;10.930;2023-05-16T12:39:10;101.00;;;47.60;;
13255;SDS011;37913;48.370;10.930;2023-05-16T12:41:40;116.88;;;51.45;;
13255;SDS011;37913;48.370;10.930;2023-05-16T12:44:12;115.50;;;52.03;;
13255;SDS011;37913;48.370;10.930;2023-05-16T12:46:41;147.63;;;59.42;;
13255;SDS011;37913;48.370;10.930;2023-05-16T12:49:09;143.93;;;55.03;;
13255;SDS011;37913;48.370;10.930;2023-05-16T12:51:37;126.75;;;54.58;;
13255;SDS011;37913;48.370;10.930;2023-05-16T12:54:08;134.50;;;56.70;;
13255;SDS011;37913;48.370;10.930;2023-05-16T12:56:36;111.15;;;53.45;;
13255;SDS011;37913;48.370;10.930;2023-05-16T12:59:04;123.47;;;52.40;;
13255;SDS011;37913;48.370;10.930;2023-05-16T13:01:32;121.25;;;53.40;;
13255;SDS011;37913;48.370;10.930;2023-05-16T13:04:00;115.85;;;52.92;;
13255;SDS011;37913;48.370;10.930;2023-05-16T13:06:28;125.00;;;53.90;;
13255;SDS011;37913;48.370;10.930;2023-05-16T13:08:55;118.97;;;54.20;;
13255;SDS011;37913;48.370;10.930;2023-05-16T13:11:22;124.82;;;54.75;;
13255;SDS011;37913;48.370;10.930;2023-05-16T13:13:50;127.90;;;57.50;;
13255;SDS011;37913;48.370;10.930;2023-05-16T13:16:17;130.90;;;56.55;;
13255;SDS011;37913;48.370;10.930;2023-05-16T13:18:45;131.15;;;57.55;;
13255;SDS011;37913;48.370;10.930;2023-05-16T13:21:12;187.80;;;64.07;;
13255;SDS011;37913;48.370;10.930;2023-05-16T13:23:39;169.98;;;60.95;;
13255;SDS011;37913;48.370;10.930;2023-05-16T13:26:06;146.10;;;61.30;;
13255;SDS011;37913;48.370;10.930;2023-05-16T13:28:33;136.38;;;60.65;;
13255;SDS011;37913;48.370;10.930;2023-05-16T13:31:01;150.55;;;62.28;;
13255;SDS011;37913;48.370;10.930;2023-05-16T13:33:28;133.45;;;59.53;;
13255;SDS011;37913;48.370;10.930;2023-05-16T13:35:56;130.75;;;58.72;;
13255;SDS011;37913;48.370;10.930;2023-05-16T13:38:23;120.03;;;56.97;;
13255;SDS011;37913;48.370;10.930;2023-05-16T13:40:50;114.95;;;54.55;;
13255;SDS011;37913;48.370;10.930;2023-05-16T13:43:17;120.65;;;56.60;;
13255;SDS011;37913;48.370;10.930;2023-05-16T13:45:44;136.88;;;57.40;;
13255;SDS011;37913;48.370;10.930;2023-05-16T13:48:11;147.60;;;61.72;;
13255;SDS011;37913;48.370;10.930;2023-05-16T13:50:38;121.22;;;56.38;;
13255;SDS011;37913;48.370;10.930;2023-05-16T13:53:06;117.85;;;55.58;;
13255;SDS011;37913;48.370;10.930;2023-05-16T13:55:33;123.10;;;56.50;;
13255;SDS011;37913;48.370;10.930;2023-05-16T13:58:02;118.38;;;55.83;;
13255;SDS011;37913;48.370;10.930;2023-05-16T14:00:30;116.60;;;55.58;;
13255;SDS011;37913;48.370;10.930;2023-05-16T14:02:57;116.50;;;54.33;;
13255;SDS011;37913;48.370;10.930;2023-05-16T14:05:24;114.55;;;52.78;;
13255;SDS011;37913;48.370;10.930;2023-05-16T14:07:51;120.95;;;52.78;;
13255;SDS011;37913;48.370;10.930;2023-05-16T14:10:19;109.18;;;48.97;;
13255;SDS011;37913;48.370;10.930;2023-05-16T14:12:46;96.38;;;46.30;;